sensor_id;sensor_type;location;lat;lon;timestamp;P1;durP1;ratioP1;P2;durP2;ratioP2
60488;SDS011;46331;49.252;8.904;2023-02-28T00:00:24;6.50;;;2.80;;
60488;SDS011;46331;49.252;8.904;2023-02-28T00:01:05;6.63;;;2.25;;
60488;SDS011;46331;49.252;8.904;2023-02-28T00:01:45;6.20;;;2.22;;
60488;SDS011;46331;49.252;8.904;2023-02-28T00:02:26;5.10;;;2.10;;
60488;SDS011;46331;49.252;8.904;2023-02-28T00:03:06;5.85;;;2.03;;
60488;SDS011;46331;49.252;8.904;2023-02-28T00:03:47;6.75;;;2.10;;
60488;SDS011;46331;49.252;8.904;2023-02-28T00:04:27;5.43;;;1.90;;
60488;SDS011;46331;49.252;8.904;2023-02-28T00:05:09;6.10;;;2.00;;
60488;SDS011;46331;49.252;8.904;2023-02-28T00:05:51;4.38;;;1.58;;
60488;SDS011;46331;49.252;8.904;2023-02-28T00:06:31;5.70;;;2.20;;
60488;SDS011;46331;49.252;8.904;2023-02-28T00:07:12;4.95;;;1.90;;
60488;SDS011;46331;49.252;8.904;2023-02-28T00:07:52;4.80;;;2.03;;
60488;SDS011;46331;49.252;8.904;2023-02-28T00:08:33;6.28;;;2.13;;
60488;SDS011;46331;49.252;8.904;2023-02-28T00:09:14;5.47;;;2.23;;
60488;SDS011;46331;49.252;8.904;2023-02-28T00:09:54;4.93;;;1.80;;
60488;SDS011;46331;49.252;8.904;2023-02-28T00:10:35;4.22;;;1.80;;
60488;SDS011;46331;49.252;8.904;2023-02-28T00:11:16;4.75;;;1.77;;
60488;SDS011;46331;49.252;8.904;2023-02-28T00:11:57;4.65;;;1.85;;
60488;SDS011;46331;49.252;8.904;2023-02-28T00:12:38;8.68;;;2.30;;
60488;SDS011;46331;49.252;8.904;2023-02-28T00:13:19;5.57;;;2.10;;
60488;SDS011;46331;49.252;8.904;2023-02-28T00:13:59;7.30;;;1.90;;
60488;SDS011;46331;49.252;8.904;2023-02-28T00:14:40;6.23;;;2.37;;
60488;SDS011;46331;49.252;8.904;2023-02-28T00:15:20;6.65;;;2.05;;
60488;SDS011;46331;49.252;8.904;2023-02-28T00:16:04;5.68;;;1.95;;
60488;SDS011;46331;49.252;8.904;2023-02-28T00:16:47;5.40;;;1.70;;
60488;SDS011;46331;49.252;8.904;2023-02-28T00:17:28;5.55;;;2.13;;
60488;SDS011;46331;49.252;8.904;2023-02-28T00:18:08;5.20;;;1.70;;
60488;SDS011;46331;49.252;8.904;2023-02-28T00:18:49;5.80;;;1.92;;
60488;SDS011;46331;49.252;8.904;2023-02-28T00:19:30;5.57;;;2.03;;
60488;SDS011;46331;49.252;8.904;2023-02-28T00:20:11;4.77;;;1.77;;
60488;SDS011;46331;49.252;8.904;2023-02-28T00:20:52;5.57;;;2.15;;
60488;SDS011;46331;49.252;8.904;2023-02-28T00:21:33;6.27;;;2.10;;
60488;SDS011;46331;49.252;8.904;2023-02-28T00:22:14;5.60;;;1.92;;
60488;SDS011;46331;49.252;8.904;2023-02-28T00:22:55;8.43;;;2.10;;
60488;SDS011;46331;49.252;8.904;2023-02-28T00:23:36;5.93;;;2.00;;
60488;SDS011;46331;49.252;8.904;2023-02-28T00:24:16;5.53;;;2.10;;
60488;SDS011;46331;49.252;8.904;2023-02-28T00:24:57;5.17;;;2.03;;
60488;SDS011;46331;49.252;8.904;2023-02-28T00:25:37;5.10;;;1.93;;
60488;SDS011;46331;49.252;8.904;2023-02-28T00:26:18;5.97;;;2.03;;
60488;SDS011;46331;49.252;8.904;2023-02-28T00:26:59;5.20;;;2.30;;
60488;SDS011;46331;49.252;8.904;2023-02-28T00:27:40;5.83;;;2.27;;
60488;SDS011;46331;49.252;8.904;2023-02-28T00:28:21;5.85;;;1.83;;
60488;SDS011;46331;49.252;8.904;2023-02-28T00:29:02;5.45;;;1.92;;
60488;SDS011;46331;49.252;8.904;2023-02-28T00:29:42;7.17;;;2.10;;
60488;SDS011;46331;49.252;8.904;2023-02-28T00:30:24;6.38;;;2.20;;
60488;SDS011;46331;49.252;8.904;2023-02-28T00:31:05;5.95;;;2.13;;
60488;SDS011;46331;49.252;8.904;2023-02-28T00:31:46;6.37;;;2.20;;
60488;SDS011;46331;49.252;8.904;2023-02-28T00:32:26;5.13;;;1.98;;
60488;SDS011;46331;49.252;8.904;2023-02-28T00:33:07;5.57;;;1.90;;
60488;SDS011;46331;49.252;8.904;2023-02-28T00:33:47;5.68;;;2.20;;
60488;SDS011;46331;49.252;8.904;2023-02-28T00:34:28;5.38;;;1.90;;
60488;SDS011;46331;49.252;8.904;2023-02-28T00:35:09;5.88;;;1.80;;
60488;SDS011;46331;49.252;8.904;2023-02-28T00:35:50;4.88;;;2.08;;
60488;SDS011;46331;49.252;8.904;2023-02-28T00:36:31;4.87;;;1.90;;
60488;SDS011;46331;49.252;8.904;2023-02-28T00:37:11;6.53;;;2.25;;
60488;SDS011;46331;49.252;8.904;2023-02-28T00:37:52;6.78;;;2.17;;
60488;SDS011;46331;49.252;8.904;2023-02-28T00:38:33;4.90;;;1.95;;
60488;SDS011;46331;49.252;8.904;2023-02-28T00:39:14;5.18;;;2.20;;
60488;SDS011;46331;49.252;8.904;2023-02-28T00:39:56;5.07;;;1.85;;
60488;SDS011;46331;49.252;8.904;2023-02-28T00:40:36;5.67;;;1.90;;
60488;SDS011;46331;49.252;8.904;2023-02-28T00:41:17;6.05;;;2.00;;
60488;SDS011;46331;49.252;8.904;2023-02-28T00:41:57;5.10;;;2.00;;
60488;SDS011;46331;49.252;8.904;2023-02-28T00:42:38;6.28;;;2.08;;
60488;SDS011;46331;49.252;8.904;2023-02-28T00:43:21;5.85;;;1.98;;
60488;SDS011;46331;49.252;8.904;2023-02-28T00:44:01;9.73;;;2.43;;
60488;SDS011;46331;49.252;8.904;2023-02-28T00:44:42;6.25;;;2.20;;
60488;SDS011;46331;49.252;8.904;2023-02-28T00:45:23;6.47;;;2.20;;
60488;SDS011;46331;49.252;8.904;2023-02-28T00:46:03;7.72;;;2.00;;
60488;SDS011;46331;49.252;8.904;2023-02-28T00:46:44;7.75;;;1.95;;
60488;SDS011;46331;49.252;8.904;2023-02-28T00:47:25;4.88;;;1.83;;
60488;SDS011;46331;49.252;8.904;2023-02-28T00:48:06;6.70;;;2.55;;
60488;SDS011;46331;49.252;8.904;2023-02-28T00:48:46;5.53;;;2.10;;
60488;SDS011;46331;49.252;8.904;2023-02-28T00:49:28;6.53;;;2.33;;
60488;SDS011;46331;49.252;8.904;2023-02-28T00:50:09;6.10;;;2.10;;
60488;SDS011;46331;49.252;8.904;2023-02-28T00:50:50;6.28;;;2.10;;
60488;SDS011;46331;49.252;8.904;2023-02-28T00:51:31;8.43;;;2.50;;
60488;SDS011;46331;49.252;8.904;2023-02-28T00:52:12;6.30;;;2.13;;
60488;SDS011;46331;49.252;8.904;2023-02-28T00:52:52;5.83;;;2.03;;
60488;SDS011;46331;49.252;8.904;2023-02-28T00:53:34;6.57;;;2.30;;
60488;SDS011;46331;49.252;8.904;2023-02-28T00:54:15;6.77;;;2.53;;
60488;SDS011;46331;49.252;8.904;2023-02-28T00:54:55;6.40;;;2.13;;
60488;SDS011;46331;49.252;8.904;2023-02-28T00:55:36;7.25;;;2.47;;
60488;SDS011;46331;49.252;8.904;2023-02-28T00:56:18;5.63;;;2.00;;
60488;SDS011;46331;49.252;8.904;2023-02-28T00:56:59;7.70;;;2.43;;
60488;SDS011;46331;49.252;8.904;2023-02-28T00:57:39;5.47;;;2.03;;
60488;SDS011;46331;49.252;8.904;2023-02-28T00:58:20;5.50;;;2.08;;
60488;SDS011;46331;49.252;8.904;2023-02-28T00:59:00;4.77;;;1.90;;
60488;SDS011;46331;49.252;8.904;2023-02-28T00:59:41;6.18;;;2.25;;
60488;SDS011;46331;49.252;8.904;2023-02-28T01:00:21;5.50;;;2.13;;
60488;SDS011;46331;49.252;8.904;2023-02-28T01:01:04;5.65;;;2.28;;
60488;SDS011;46331;49.252;8.904;2023-02-28T01:01:45;6.43;;;2.45;;
60488;SDS011;46331;49.252;8.904;2023-02-28T01:02:26;6.45;;;2.03;;
60488;SDS011;46331;49.252;8.904;2023-02-28T01:03:07;6.07;;;2.00;;
60488;SDS011;46331;49.252;8.904;2023-02-28T01:03:47;6.20;;;2.33;;
60488;SDS011;46331;49.252;8.904;2023-02-28T01:04:28;5.18;;;1.88;;
60488;SDS011;46331;49.252;8.904;2023-02-28T01:05:08;7.40;;;2.40;;
60488;SDS011;46331;49.252;8.904;2023-02-28T01:05:49;5.70;;;2.17;;
60488;SDS011;46331;49.252;8.904;2023-02-28T01:06:31;5.63;;;2.05;;
60488;SDS011;46331;49.252;8.904;2023-02-28T01:07:11;7.90;;;2.55;;
60488;SDS011;46331;49.252;8.904;2023-02-28T01:07:53;5.50;;;2.08;;
60488;SDS011;46331;49.252;8.904;2023-02-28T01:08:34;6.10;;;2.10;;
60488;SDS011;46331;49.252;8.904;2023-02-28T01:09:14;5.80;;;2.20;;
60488;SDS011;46331;49.252;8.904;2023-02-28T01:09:59;5.97;;;1.88;;
60488;SDS011;46331;49.252;8.904;2023-02-28T01:10:39;5.97;;;2.13;;
60488;SDS011;46331;49.252;8.904;2023-02-28T01:11:21;6.28;;;2.35;;
60488;SDS011;46331;49.252;8.904;2023-02-28T01:12:02;6.43;;;2.03;;
60488;SDS011;46331;49.252;8.904;2023-02-28T01:12:42;6.15;;;1.90;;
60488;SDS011;46331;49.252;8.904;2023-02-28T01:13:23;7.03;;;2.50;;
60488;SDS011;46331;49.252;8.904;2023-02-28T01:14:05;5.50;;;2.20;;
60488;SDS011;46331;49.252;8.904;2023-02-28T01:14:45;5.37;;;2.20;;
60488;SDS011;46331;49.252;8.904;2023-02-28T01:15:26;7.22;;;2.50;;
60488;SDS011;46331;49.252;8.904;2023-02-28T01:16:07;5.63;;;2.13;;
60488;SDS011;46331;49.252;8.904;2023-02-28T01:16:48;6.95;;;2.17;;
60488;SDS011;46331;49.252;8.904;2023-02-28T01:17:29;6.50;;;2.47;;
60488;SDS011;46331;49.252;8.904;2023-02-28T01:18:10;6.23;;;2.00;;
60488;SDS011;46331;49.252;8.904;2023-02-28T01:18:51;6.43;;;2.25;;
60488;SDS011;46331;49.252;8.904;2023-02-28T01:19:32;7.05;;;2.33;;
60488;SDS011;46331;49.252;8.904;2023-02-28T01:20:13;6.85;;;2.20;;
60488;SDS011;46331;49.252;8.904;2023-02-28T01:20:54;7.38;;;2.60;;
60488;SDS011;46331;49.252;8.904;2023-02-28T01:21:34;5.88;;;2.35;;
60488;SDS011;46331;49.252;8.904;2023-02-28T01:22:16;5.30;;;2.08;;
60488;SDS011;46331;49.252;8.904;2023-02-28T01:22:56;5.40;;;2.20;;
60488;SDS011;46331;49.252;8.904;2023-02-28T01:23:37;5.93;;;2.30;;
60488;SDS011;46331;49.252;8.904;2023-02-28T01:24:18;4.95;;;1.95;;
60488;SDS011;46331;49.252;8.904;2023-02-28T01:24:59;8.30;;;2.43;;
60488;SDS011;46331;49.252;8.904;2023-02-28T01:25:40;6.53;;;2.50;;
60488;SDS011;46331;49.252;8.904;2023-02-28T01:26:21;4.70;;;2.00;;
60488;SDS011;46331;49.252;8.904;2023-02-28T01:27:02;5.57;;;2.30;;
60488;SDS011;46331;49.252;8.904;2023-02-28T01:27:43;6.88;;;2.35;;
60488;SDS011;46331;49.252;8.904;2023-02-28T01:28:23;7.10;;;2.30;;
60488;SDS011;46331;49.252;8.904;2023-02-28T01:29:04;6.25;;;2.05;;
60488;SDS011;46331;49.252;8.904;2023-02-28T01:29:44;7.63;;;2.33;;
60488;SDS011;46331;49.252;8.904;2023-02-28T01:30:25;5.85;;;2.25;;
60488;SDS011;46331;49.252;8.904;2023-02-28T01:31:06;6.23;;;2.30;;
60488;SDS011;46331;49.252;8.904;2023-02-28T01:31:47;6.78;;;2.50;;
60488;SDS011;46331;49.252;8.904;2023-02-28T01:32:28;6.75;;;1.90;;
60488;SDS011;46331;49.252;8.904;2023-02-28T01:33:09;9.00;;;2.95;;
60488;SDS011;46331;49.252;8.904;2023-02-28T01:33:50;6.30;;;1.98;;
60488;SDS011;46331;49.252;8.904;2023-02-28T01:34:31;5.82;;;2.22;;
60488;SDS011;46331;49.252;8.904;2023-02-28T01:35:11;7.60;;;2.40;;
60488;SDS011;46331;49.252;8.904;2023-02-28T01:36:01;5.43;;;1.98;;
60488;SDS011;46331;49.252;8.904;2023-02-28T01:36:43;8.32;;;1.90;;
60488;SDS011;46331;49.252;8.904;2023-02-28T01:37:24;6.88;;;2.40;;
60488;SDS011;46331;49.252;8.904;2023-02-28T01:38:05;5.27;;;1.80;;
60488;SDS011;46331;49.252;8.904;2023-02-28T01:38:46;4.63;;;2.07;;
60488;SDS011;46331;49.252;8.904;2023-02-28T01:39:27;7.45;;;2.30;;
60488;SDS011;46331;49.252;8.904;2023-02-28T01:40:08;6.95;;;2.38;;
60488;SDS011;46331;49.252;8.904;2023-02-28T01:40:49;6.30;;;2.00;;
60488;SDS011;46331;49.252;8.904;2023-02-28T01:41:31;7.00;;;2.15;;
60488;SDS011;46331;49.252;8.904;2023-02-28T01:42:14;6.05;;;2.50;;
60488;SDS011;46331;49.252;8.904;2023-02-28T01:42:55;6.33;;;2.23;;
60488;SDS011;46331;49.252;8.904;2023-02-28T01:45:35;7.68;;;2.22;;
60488;SDS011;46331;49.252;8.904;2023-02-28T01:46:17;6.15;;;2.30;;
60488;SDS011;46331;49.252;8.904;2023-02-28T01:46:57;6.78;;;2.60;;
60488;SDS011;46331;49.252;8.904;2023-02-28T01:47:41;6.13;;;2.40;;
60488;SDS011;46331;49.252;8.904;2023-02-28T01:48:34;7.25;;;2.70;;
60488;SDS011;46331;49.252;8.904;2023-02-28T01:49:19;6.00;;;2.33;;
60488;SDS011;46331;49.252;8.904;2023-02-28T01:50:00;7.68;;;2.15;;
60488;SDS011;46331;49.252;8.904;2023-02-28T01:50:44;7.47;;;2.20;;
60488;SDS011;46331;49.252;8.904;2023-02-28T01:51:29;6.72;;;2.42;;
60488;SDS011;46331;49.252;8.904;2023-02-28T01:52:34;5.57;;;2.03;;
60488;SDS011;46331;49.252;8.904;2023-02-28T01:53:17;5.50;;;2.40;;
60488;SDS011;46331;49.252;8.904;2023-02-28T01:54:06;6.90;;;2.70;;
60488;SDS011;46331;49.252;8.904;2023-02-28T01:54:54;5.40;;;2.33;;
60488;SDS011;46331;49.252;8.904;2023-02-28T01:55:36;6.43;;;2.15;;
60488;SDS011;46331;49.252;8.904;2023-02-28T01:56:20;6.38;;;2.13;;
60488;SDS011;46331;49.252;8.904;2023-02-28T01:57:06;6.25;;;2.47;;
60488;SDS011;46331;49.252;8.904;2023-02-28T01:57:52;6.05;;;2.35;;
60488;SDS011;46331;49.252;8.904;2023-02-28T01:58:38;5.47;;;2.58;;
60488;SDS011;46331;49.252;8.904;2023-02-28T01:59:22;6.72;;;2.88;;
60488;SDS011;46331;49.252;8.904;2023-02-28T02:00:26;7.20;;;2.40;;
60488;SDS011;46331;49.252;8.904;2023-02-28T02:01:08;6.25;;;2.53;;
60488;SDS011;46331;49.252;8.904;2023-02-28T02:01:49;7.22;;;2.15;;
60488;SDS011;46331;49.252;8.904;2023-02-28T02:02:30;6.03;;;2.13;;
60488;SDS011;46331;49.252;8.904;2023-02-28T02:03:12;6.38;;;2.35;;
60488;SDS011;46331;49.252;8.904;2023-02-28T02:03:57;7.10;;;2.20;;
60488;SDS011;46331;49.252;8.904;2023-02-28T02:04:46;7.07;;;2.25;;
60488;SDS011;46331;49.252;8.904;2023-02-28T02:05:33;5.75;;;2.28;;
60488;SDS011;46331;49.252;8.904;2023-02-28T02:06:16;6.93;;;2.50;;
60488;SDS011;46331;49.252;8.904;2023-02-28T02:07:00;7.93;;;2.80;;
60488;SDS011;46331;49.252;8.904;2023-02-28T02:07:41;5.72;;;2.47;;
60488;SDS011;46331;49.252;8.904;2023-02-28T02:08:24;6.20;;;2.30;;
60488;SDS011;46331;49.252;8.904;2023-02-28T02:09:08;6.85;;;2.60;;
60488;SDS011;46331;49.252;8.904;2023-02-28T02:09:48;6.77;;;2.10;;
60488;SDS011;46331;49.252;8.904;2023-02-28T02:11:16;7.93;;;2.63;;
60488;SDS011;46331;49.252;8.904;2023-02-28T02:11:59;6.30;;;2.50;;
60488;SDS011;46331;49.252;8.904;2023-02-28T02:15:00;5.65;;;2.00;;
60488;SDS011;46331;49.252;8.904;2023-02-28T02:16:46;6.60;;;2.30;;
60488;SDS011;46331;49.252;8.904;2023-02-28T02:17:34;6.93;;;2.25;;
60488;SDS011;46331;49.252;8.904;2023-02-28T02:20:38;6.65;;;2.38;;
60488;SDS011;46331;49.252;8.904;2023-02-28T02:25:19;8.50;;;2.50;;
60488;SDS011;46331;49.252;8.904;2023-02-28T02:34:52;6.32;;;2.20;;
60488;SDS011;46331;49.252;8.904;2023-02-28T02:36:41;7.00;;;2.20;;
60488;SDS011;46331;49.252;8.904;2023-02-28T02:37:33;9.05;;;2.83;;
60488;SDS011;46331;49.252;8.904;2023-02-28T02:38:35;8.70;;;2.70;;
60488;SDS011;46331;49.252;8.904;2023-02-28T02:39:47;5.95;;;2.45;;
60488;SDS011;46331;49.252;8.904;2023-02-28T02:41:02;6.05;;;2.30;;
60488;SDS011;46331;49.252;8.904;2023-02-28T02:41:52;5.88;;;2.28;;
60488;SDS011;46331;49.252;8.904;2023-02-28T02:43:29;4.93;;;1.75;;
60488;SDS011;46331;49.252;8.904;2023-02-28T02:44:17;6.85;;;2.72;;
60488;SDS011;46331;49.252;8.904;2023-02-28T02:46:12;5.95;;;2.30;;
60488;SDS011;46331;49.252;8.904;2023-02-28T02:47:06;7.10;;;2.60;;
60488;SDS011;46331;49.252;8.904;2023-02-28T02:47:50;7.30;;;2.33;;
60488;SDS011;46331;49.252;8.904;2023-02-28T02:48:32;7.32;;;2.30;;
60488;SDS011;46331;49.252;8.904;2023-02-28T02:49:18;6.57;;;2.20;;
60488;SDS011;46331;49.252;8.904;2023-02-28T02:50:07;7.45;;;2.50;;
60488;SDS011;46331;49.252;8.904;2023-02-28T02:50:55;7.03;;;2.40;;
60488;SDS011;46331;49.252;8.904;2023-02-28T02:51:39;6.80;;;2.60;;
60488;SDS011;46331;49.252;8.904;2023-02-28T02:52:23;6.45;;;2.58;;
60488;SDS011;46331;49.252;8.904;2023-02-28T02:53:09;7.03;;;2.20;;
60488;SDS011;46331;49.252;8.904;2023-02-28T02:53:57;7.38;;;2.42;;
60488;SDS011;46331;49.252;8.904;2023-02-28T02:54:43;8.00;;;2.58;;
60488;SDS011;46331;49.252;8.904;2023-02-28T02:55:26;6.35;;;2.53;;
60488;SDS011;46331;49.252;8.904;2023-02-28T02:56:08;6.47;;;2.50;;
60488;SDS011;46331;49.252;8.904;2023-02-28T02:56:49;6.75;;;2.47;;
60488;SDS011;46331;49.252;8.904;2023-02-28T02:57:33;6.80;;;2.78;;
60488;SDS011;46331;49.252;8.904;2023-02-28T02:58:18;7.07;;;2.60;;
60488;SDS011;46331;49.252;8.904;2023-02-28T02:59:06;8.65;;;2.72;;
60488;SDS011;46331;49.252;8.904;2023-02-28T02:59:50;6.05;;;2.08;;
60488;SDS011;46331;49.252;8.904;2023-02-28T03:00:34;5.50;;;2.28;;
60488;SDS011;46331;49.252;8.904;2023-02-28T03:01:20;8.30;;;2.80;;
60488;SDS011;46331;49.252;8.904;2023-02-28T03:02:12;7.40;;;2.50;;
60488;SDS011;46331;49.252;8.904;2023-02-28T03:02:56;7.25;;;2.90;;
60488;SDS011;46331;49.252;8.904;2023-02-28T03:03:37;6.70;;;2.60;;
60488;SDS011;46331;49.252;8.904;2023-02-28T03:04:20;7.38;;;2.75;;
60488;SDS011;46331;49.252;8.904;2023-02-28T03:05:04;6.20;;;2.50;;
60488;SDS011;46331;49.252;8.904;2023-02-28T03:05:52;6.55;;;2.38;;
60488;SDS011;46331;49.252;8.904;2023-02-28T03:06:33;6.33;;;2.47;;
60488;SDS011;46331;49.252;8.904;2023-02-28T03:07:13;6.72;;;3.03;;
60488;SDS011;46331;49.252;8.904;2023-02-28T03:07:55;8.25;;;2.38;;
60488;SDS011;46331;49.252;8.904;2023-02-28T03:08:36;6.87;;;2.60;;
60488;SDS011;46331;49.252;8.904;2023-02-28T03:09:18;6.75;;;2.63;;
60488;SDS011;46331;49.252;8.904;2023-02-28T03:09:59;7.00;;;2.80;;
60488;SDS011;46331;49.252;8.904;2023-02-28T03:11:22;7.97;;;2.80;;
60488;SDS011;46331;49.252;8.904;2023-02-28T03:12:03;6.55;;;2.70;;
60488;SDS011;46331;49.252;8.904;2023-02-28T03:12:49;5.50;;;2.53;;
60488;SDS011;46331;49.252;8.904;2023-02-28T03:15:33;6.68;;;2.60;;
60488;SDS011;46331;49.252;8.904;2023-02-28T03:20:32;4.78;;;2.08;;
60488;SDS011;46331;49.252;8.904;2023-02-28T03:21:23;7.97;;;2.63;;
60488;SDS011;46331;49.252;8.904;2023-02-28T03:24:23;7.78;;;2.08;;
60488;SDS011;46331;49.252;8.904;2023-02-28T03:25:29;6.40;;;2.80;;
60488;SDS011;46331;49.252;8.904;2023-02-28T03:26:21;6.43;;;2.42;;
60488;SDS011;46331;49.252;8.904;2023-02-28T03:27:06;7.40;;;2.63;;
60488;SDS011;46331;49.252;8.904;2023-02-28T03:29:48;6.50;;;2.95;;
60488;SDS011;46331;49.252;8.904;2023-02-28T03:30:39;5.43;;;2.30;;
60488;SDS011;46331;49.252;8.904;2023-02-28T03:31:30;6.78;;;2.97;;
60488;SDS011;46331;49.252;8.904;2023-02-28T03:33:58;7.78;;;2.90;;
60488;SDS011;46331;49.252;8.904;2023-02-28T03:34:46;7.90;;;3.00;;
60488;SDS011;46331;49.252;8.904;2023-02-28T03:35:32;6.53;;;2.33;;
60488;SDS011;46331;49.252;8.904;2023-02-28T03:36:17;7.47;;;2.80;;
60488;SDS011;46331;49.252;8.904;2023-02-28T03:37:08;7.68;;;2.85;;
60488;SDS011;46331;49.252;8.904;2023-02-28T03:37:53;8.07;;;3.00;;
60488;SDS011;46331;49.252;8.904;2023-02-28T03:38:46;6.72;;;2.70;;
60488;SDS011;46331;49.252;8.904;2023-02-28T03:40:21;5.55;;;2.50;;
60488;SDS011;46331;49.252;8.904;2023-02-28T03:41:59;6.50;;;2.42;;
60488;SDS011;46331;49.252;8.904;2023-02-28T03:42:44;7.18;;;2.78;;
60488;SDS011;46331;49.252;8.904;2023-02-28T03:43:29;5.95;;;2.75;;
60488;SDS011;46331;49.252;8.904;2023-02-28T03:45:20;6.95;;;2.95;;
60488;SDS011;46331;49.252;8.904;2023-02-28T03:46:05;7.95;;;2.70;;
60488;SDS011;46331;49.252;8.904;2023-02-28T03:46:52;7.55;;;2.83;;
60488;SDS011;46331;49.252;8.904;2023-02-28T03:47:39;7.15;;;3.00;;
60488;SDS011;46331;49.252;8.904;2023-02-28T03:48:30;5.60;;;2.70;;
60488;SDS011;46331;49.252;8.904;2023-02-28T03:49:16;7.13;;;2.85;;
60488;SDS011;46331;49.252;8.904;2023-02-28T03:50:10;7.38;;;2.90;;
60488;SDS011;46331;49.252;8.904;2023-02-28T03:50:58;7.68;;;3.20;;
60488;SDS011;46331;49.252;8.904;2023-02-28T03:51:40;6.65;;;2.75;;
60488;SDS011;46331;49.252;8.904;2023-02-28T03:52:23;7.90;;;3.00;;
60488;SDS011;46331;49.252;8.904;2023-02-28T03:53:16;7.55;;;3.10;;
60488;SDS011;46331;49.252;8.904;2023-02-28T03:54:04;6.15;;;2.50;;
60488;SDS011;46331;49.252;8.904;2023-02-28T03:54:50;7.38;;;3.13;;
60488;SDS011;46331;49.252;8.904;2023-02-28T03:55:35;7.32;;;2.97;;
60488;SDS011;46331;49.252;8.904;2023-02-28T03:57:04;6.63;;;2.75;;
60488;SDS011;46331;49.252;8.904;2023-02-28T03:58:43;7.22;;;3.10;;
60488;SDS011;46331;49.252;8.904;2023-02-28T04:01:09;6.82;;;3.10;;
60488;SDS011;46331;49.252;8.904;2023-02-28T04:01:53;8.43;;;3.03;;
60488;SDS011;46331;49.252;8.904;2023-02-28T04:02:35;6.85;;;2.88;;
60488;SDS011;46331;49.252;8.904;2023-02-28T04:03:16;7.65;;;3.25;;
60488;SDS011;46331;49.252;8.904;2023-02-28T04:03:57;7.13;;;2.95;;
60488;SDS011;46331;49.252;8.904;2023-02-28T04:04:38;6.77;;;2.93;;
60488;SDS011;46331;49.252;8.904;2023-02-28T04:05:19;7.63;;;3.35;;
60488;SDS011;46331;49.252;8.904;2023-02-28T04:06:01;8.27;;;3.35;;
60488;SDS011;46331;49.252;8.904;2023-02-28T04:06:42;7.57;;;2.88;;
60488;SDS011;46331;49.252;8.904;2023-02-28T04:07:23;7.57;;;3.30;;
60488;SDS011;46331;49.252;8.904;2023-02-28T04:08:04;6.93;;;3.17;;
60488;SDS011;46331;49.252;8.904;2023-02-28T04:08:46;7.30;;;3.33;;
60488;SDS011;46331;49.252;8.904;2023-02-28T04:09:27;8.57;;;3.10;;
60488;SDS011;46331;49.252;8.904;2023-02-28T04:10:08;7.45;;;2.88;;
60488;SDS011;46331;49.252;8.904;2023-02-28T04:10:51;6.97;;;3.13;;
60488;SDS011;46331;49.252;8.904;2023-02-28T04:11:39;8.75;;;3.40;;
60488;SDS011;46331;49.252;8.904;2023-02-28T04:12:20;9.50;;;3.40;;
60488;SDS011;46331;49.252;8.904;2023-02-28T04:13:03;8.35;;;3.35;;
60488;SDS011;46331;49.252;8.904;2023-02-28T04:13:43;7.75;;;3.15;;
60488;SDS011;46331;49.252;8.904;2023-02-28T04:14:24;9.63;;;3.40;;
60488;SDS011;46331;49.252;8.904;2023-02-28T04:15:05;7.72;;;3.00;;
60488;SDS011;46331;49.252;8.904;2023-02-28T04:15:46;6.75;;;2.72;;
60488;SDS011;46331;49.252;8.904;2023-02-28T04:16:26;7.90;;;3.40;;
60488;SDS011;46331;49.252;8.904;2023-02-28T04:17:07;9.13;;;2.90;;
60488;SDS011;46331;49.252;8.904;2023-02-28T04:17:48;6.80;;;2.80;;
60488;SDS011;46331;49.252;8.904;2023-02-28T04:18:28;7.40;;;2.90;;
60488;SDS011;46331;49.252;8.904;2023-02-28T04:19:09;7.13;;;2.95;;
60488;SDS011;46331;49.252;8.904;2023-02-28T04:19:51;8.30;;;3.17;;
60488;SDS011;46331;49.252;8.904;2023-02-28T04:20:31;7.67;;;3.20;;
60488;SDS011;46331;49.252;8.904;2023-02-28T04:21:12;7.15;;;2.90;;
60488;SDS011;46331;49.252;8.904;2023-02-28T04:21:53;7.40;;;3.20;;
60488;SDS011;46331;49.252;8.904;2023-02-28T04:22:35;7.07;;;3.40;;
60488;SDS011;46331;49.252;8.904;2023-02-28T04:23:16;7.50;;;3.10;;
60488;SDS011;46331;49.252;8.904;2023-02-28T04:23:56;7.72;;;3.20;;
60488;SDS011;46331;49.252;8.904;2023-02-28T04:24:40;7.45;;;3.38;;
60488;SDS011;46331;49.252;8.904;2023-02-28T04:25:21;8.83;;;3.33;;
60488;SDS011;46331;49.252;8.904;2023-02-28T04:26:03;7.35;;;2.83;;
60488;SDS011;46331;49.252;8.904;2023-02-28T04:26:47;9.65;;;3.75;;
60488;SDS011;46331;49.252;8.904;2023-02-28T04:27:29;6.53;;;3.28;;
60488;SDS011;46331;49.252;8.904;2023-02-28T04:28:10;7.27;;;3.40;;
60488;SDS011;46331;49.252;8.904;2023-02-28T04:28:50;7.75;;;3.20;;
60488;SDS011;46331;49.252;8.904;2023-02-28T04:29:31;7.33;;;3.03;;
60488;SDS011;46331;49.252;8.904;2023-02-28T04:30:12;8.35;;;3.50;;
60488;SDS011;46331;49.252;8.904;2023-02-28T04:30:57;7.65;;;3.72;;
60488;SDS011;46331;49.252;8.904;2023-02-28T04:31:39;6.68;;;3.03;;
60488;SDS011;46331;49.252;8.904;2023-02-28T04:32:19;7.27;;;3.10;;
60488;SDS011;46331;49.252;8.904;2023-02-28T04:33:00;7.38;;;3.22;;
60488;SDS011;46331;49.252;8.904;2023-02-28T04:33:41;7.87;;;3.57;;
60488;SDS011;46331;49.252;8.904;2023-02-28T04:34:22;8.02;;;3.13;;
60488;SDS011;46331;49.252;8.904;2023-02-28T04:35:03;8.68;;;3.40;;
60488;SDS011;46331;49.252;8.904;2023-02-28T04:35:44;8.13;;;3.47;;
60488;SDS011;46331;49.252;8.904;2023-02-28T04:36:25;7.40;;;3.15;;
60488;SDS011;46331;49.252;8.904;2023-02-28T04:37:06;8.77;;;3.35;;
60488;SDS011;46331;49.252;8.904;2023-02-28T04:37:46;7.43;;;3.28;;
60488;SDS011;46331;49.252;8.904;2023-02-28T04:38:27;10.17;;;3.60;;
60488;SDS011;46331;49.252;8.904;2023-02-28T04:39:08;7.57;;;3.05;;
60488;SDS011;46331;49.252;8.904;2023-02-28T04:39:49;7.57;;;3.25;;
60488;SDS011;46331;49.252;8.904;2023-02-28T04:40:30;8.90;;;3.38;;
60488;SDS011;46331;49.252;8.904;2023-02-28T04:41:11;7.23;;;3.60;;
60488;SDS011;46331;49.252;8.904;2023-02-28T04:41:53;7.32;;;2.95;;
60488;SDS011;46331;49.252;8.904;2023-02-28T04:42:33;9.20;;;3.33;;
60488;SDS011;46331;49.252;8.904;2023-02-28T04:43:15;7.47;;;3.15;;
60488;SDS011;46331;49.252;8.904;2023-02-28T04:43:56;9.95;;;2.97;;
60488;SDS011;46331;49.252;8.904;2023-02-28T04:44:36;8.40;;;3.60;;
60488;SDS011;46331;49.252;8.904;2023-02-28T04:45:17;7.28;;;3.10;;
60488;SDS011;46331;49.252;8.904;2023-02-28T04:46:00;7.30;;;3.03;;
60488;SDS011;46331;49.252;8.904;2023-02-28T04:46:42;8.50;;;2.92;;
60488;SDS011;46331;49.252;8.904;2023-02-28T04:47:23;7.40;;;3.25;;
60488;SDS011;46331;49.252;8.904;2023-02-28T04:48:04;11.13;;;4.07;;
60488;SDS011;46331;49.252;8.904;2023-02-28T04:48:45;13.68;;;4.80;;
60488;SDS011;46331;49.252;8.904;2023-02-28T04:49:25;11.15;;;4.70;;
60488;SDS011;46331;49.252;8.904;2023-02-28T04:50:06;10.60;;;4.70;;
60488;SDS011;46331;49.252;8.904;2023-02-28T04:50:47;9.25;;;3.63;;
60488;SDS011;46331;49.252;8.904;2023-02-28T04:51:28;9.07;;;3.65;;
60488;SDS011;46331;49.252;8.904;2023-02-28T04:52:08;7.63;;;3.27;;
60488;SDS011;46331;49.252;8.904;2023-02-28T04:52:50;8.25;;;3.30;;
60488;SDS011;46331;49.252;8.904;2023-02-28T04:53:30;9.17;;;3.60;;
60488;SDS011;46331;49.252;8.904;2023-02-28T04:54:11;7.78;;;3.15;;
60488;SDS011;46331;49.252;8.904;2023-02-28T04:54:53;7.93;;;3.80;;
60488;SDS011;46331;49.252;8.904;2023-02-28T04:55:33;7.90;;;3.30;;
60488;SDS011;46331;49.252;8.904;2023-02-28T04:56:15;7.88;;;3.80;;
60488;SDS011;46331;49.252;8.904;2023-02-28T04:56:59;9.88;;;3.63;;
60488;SDS011;46331;49.252;8.904;2023-02-28T04:57:39;9.17;;;3.57;;
60488;SDS011;46331;49.252;8.904;2023-02-28T04:58:22;9.77;;;4.13;;
60488;SDS011;46331;49.252;8.904;2023-02-28T04:59:03;10.60;;;4.30;;
60488;SDS011;46331;49.252;8.904;2023-02-28T04:59:44;9.93;;;4.43;;
60488;SDS011;46331;49.252;8.904;2023-02-28T05:00:24;9.48;;;3.90;;
60488;SDS011;46331;49.252;8.904;2023-02-28T05:01:06;9.03;;;3.70;;
60488;SDS011;46331;49.252;8.904;2023-02-28T05:01:58;9.43;;;3.47;;